sensor_id;sensor_type;location;lat;lon;timestamp;temperature;humidity
17715;DHT22;8977;50.902;4.314;2023-04-21T00:01:42;12.20;99.90
17715;DHT22;8977;50.902;4.314;2023-04-21T00:04:08;12.20;99.90
17715;DHT22;8977;50.902;4.314;2023-04-21T00:06:37;12.30;99.90
17715;DHT22;8977;50.902;4.314;2023-04-21T00:09:07;12.30;99.90
17715;DHT22;8977;50.902;4.314;2023-04-21T00:11:35;12.30;99.90
17715;DHT22;8977;50.902;4.314;2023-04-21T00:14:05;12.30;99.90
17715;DHT22;8977;50.902;4.314;2023-04-21T00:16:32;12.30;99.90
17715;DHT22;8977;50.902;4.314;2023-04-21T00:18:59;12.30;99.90
17715;DHT22;8977;50.902;4.314;2023-04-21T00:21:27;12.30;99.90
17715;DHT22;8977;50.902;4.314;2023-04-21T00:23:54;12.30;99.90
17715;DHT22;8977;50.902;4.314;2023-04-21T00:26:22;12.30;99.90
17715;DHT22;8977;50.902;4.314;2023-04-21T00:28:49;12.30;99.90
17715;DHT22;8977;50.902;4.314;2023-04-21T00:31:16;12.30;99.90
17715;DHT22;8977;50.902;4.314;2023-04-21T00:33:46;12.30;99.90
17715;DHT22;8977;50.902;4.314;2023-04-21T00:36:14;12.30;99.90
17715;DHT22;8977;50.902;4.314;2023-04-21T00:38:41;12.30;99.90
17715;DHT22;8977;50.902;4.314;2023-04-21T00:41:08;12.30;99.90
17715;DHT22;8977;50.902;4.314;2023-04-21T00:43:36;12.40;99.90
17715;DHT22;8977;50.902;4.314;2023-04-21T00:46:03;12.40;99.90
17715;DHT22;8977;50.902;4.314;2023-04-21T00:48:30;12.40;99.90
17715;DHT22;8977;50.902;4.314;2023-04-21T00:50:57;12.40;99.90
17715;DHT22;8977;50.902;4.314;2023-04-21T00:53:24;12.40;99.90
17715;DHT22;8977;50.902;4.314;2023-04-21T00:55:51;12.40;99.90
17715;DHT22;8977;50.902;4.314;2023-04-21T00:58:18;12.40;99.90
17715;DHT22;8977;50.902;4.314;2023-04-21T01:00:46;12.40;99.90
17715;DHT22;8977;50.902;4.314;2023-04-21T01:03:14;12.50;99.90
17715;DHT22;8977;50.902;4.314;2023-04-21T01:05:41;12.50;99.90
17715;DHT22;8977;50.902;4.314;2023-04-21T01:08:08;12.50;99.90
17715;DHT22;8977;50.902;4.314;2023-04-21T01:10:35;12.50;99.90
17715;DHT22;8977;50.902;4.314;2023-04-21T01:13:02;12.50;99.90
17715;DHT22;8977;50.902;4.314;2023-04-21T01:15:29;12.50;99.90
17715;DHT22;8977;50.902;4.314;2023-04-21T01:17:58;12.50;99.90
17715;DHT22;8977;50.902;4.314;2023-04-21T01:20:25;12.50;99.90
17715;DHT22;8977;50.902;4.314;2023-04-21T01:22:55;12.50;99.90
17715;DHT22;8977;50.902;4.314;2023-04-21T01:25:22;12.50;99.90
17715;DHT22;8977;50.902;4.314;2023-04-21T01:27:52;12.50;99.90
17715;DHT22;8977;50.902;4.314;2023-04-21T01:30:19;12.50;99.90
17715;DHT22;8977;50.902;4.314;2023-04-21T01:32:47;12.50;99.90
17715;DHT22;8977;50.902;4.314;2023-04-21T01:35:13;12.50;99.90
17715;DHT22;8977;50.902;4.314;2023-04-21T01:37:40;12.60;99.90
17715;DHT22;8977;50.902;4.314;2023-04-21T01:40:10;12.60;99.90
17715;DHT22;8977;50.902;4.314;2023-04-21T01:42:39;12.60;99.90
17715;DHT22;8977;50.902;4.314;2023-04-21T01:45:08;12.60;99.90
17715;DHT22;8977;50.902;4.314;2023-04-21T01:47:35;12.50;99.90
17715;DHT22;8977;50.902;4.314;2023-04-21T01:50:02;12.50;99.90
17715;DHT22;8977;50.902;4.314;2023-04-21T01:52:29;12.50;99.90
17715;DHT22;8977;50.902;4.314;2023-04-21T01:54:56;12.50;99.90
17715;DHT22;8977;50.902;4.314;2023-04-21T01:57:24;12.50;99.90
17715;DHT22;8977;50.902;4.314;2023-04-21T01:59:51;12.50;99.90
17715;DHT22;8977;50.902;4.314;2023-04-21T02:02:18;12.50;99.90
17715;DHT22;8977;50.902;4.314;2023-04-21T02:04:45;12.50;99.90
17715;DHT22;8977;50.902;4.314;2023-04-21T02:07:12;12.50;99.90
17715;DHT22;8977;50.902;4.314;2023-04-21T02:09:39;12.50;99.90
17715;DHT22;8977;50.902;4.314;2023-04-21T02:12:07;12.60;99.90
17715;DHT22;8977;50.902;4.314;2023-04-21T02:14:35;12.60;99.90
17715;DHT22;8977;50.902;4.314;2023-04-21T02:17:02;12.60;99.90
17715;DHT22;8977;50.902;4.314;2023-04-21T02:19:29;12.50;99.90
17715;DHT22;8977;50.902;4.314;2023-04-21T02:21:57;12.60;99.90
17715;DHT22;8977;50.902;4.314;2023-04-21T02:24:24;12.50;99.90
17715;DHT22;8977;50.902;4.314;2023-04-21T02:26:51;12.50;99.90
17715;DHT22;8977;50.902;4.314;2023-04-21T02:29:17;12.50;99.90
17715;DHT22;8977;50.902;4.314;2023-04-21T02:31:46;12.50;99.90
17715;DHT22;8977;50.902;4.314;2023-04-21T02:34:13;12.60;99.90
17715;DHT22;8977;50.902;4.314;2023-04-21T02:36:40;12.60;99.90
17715;DHT22;8977;50.902;4.314;2023-04-21T02:39:07;12.60;99.90
17715;DHT22;8977;50.902;4.314;2023-04-21T02:41:34;12.50;99.90
17715;DHT22;8977;50.902;4.314;2023-04-21T02:44:01;12.50;99.90
17715;DHT22;8977;50.902;4.314;2023-04-21T02:46:28;12.60;99.90
17715;DHT22;8977;50.902;4.314;2023-04-21T02:48:56;12.60;99.90
17715;DHT22;8977;50.902;4.314;2023-04-21T02:51:23;12.50;99.90
17715;DHT22;8977;50.902;4.314;2023-04-21T02:53:51;12.50;99.90
17715;DHT22;8977;50.902;4.314;2023-04-21T02:56:18;12.50;99.90
17715;DHT22;8977;50.902;4.314;2023-04-21T02:58:45;12.50;99.90
17715;DHT22;8977;50.902;4.314;2023-04-21T03:01:12;12.50;99.90
17715;DHT22;8977;50.902;4.314;2023-04-21T03:03:39;12.50;99.90
17715;DHT22;8977;50.902;4.314;2023-04-21T03:06:07;12.60;99.90
17715;DHT22;8977;50.902;4.314;2023-04-21T03:08:34;12.50;99.90
17715;DHT22;8977;50.902;4.314;2023-04-21T03:11:01;12.60;99.90
17715;DHT22;8977;50.902;4.314;2023-04-21T03:13:28;12.60;99.90
17715;DHT22;8977;50.902;4.314;2023-04-21T03:15:55;12.50;99.90
17715;DHT22;8977;50.902;4.314;2023-04-21T03:18:22;12.50;99.90
17715;DHT22;8977;50.902;4.314;2023-04-21T03:20:49;12.50;99.90
17715;DHT22;8977;50.902;4.314;2023-04-21T03:23:18;12.50;99.90
17715;DHT22;8977;50.902;4.314;2023-04-21T03:25:45;12.50;99.90
17715;DHT22;8977;50.902;4.314;2023-04-21T03:28:12;12.50;99.90
17715;DHT22;8977;50.902;4.314;2023-04-21T03:30:40;12.50;99.90
17715;DHT22;8977;50.902;4.314;2023-04-21T03:33:08;12.60;99.90
17715;DHT22;8977;50.902;4.314;2023-04-21T03:35:35;12.50;99.90
17715;DHT22;8977;50.902;4.314;2023-04-21T03:38:02;12.50;99.90
17715;DHT22;8977;50.902;4.314;2023-04-21T03:40:30;12.60;99.90
17715;DHT22;8977;50.902;4.314;2023-04-21T03:42:57;12.60;99.90
17715;DHT22;8977;50.902;4.314;2023-04-21T03:45:24;12.50;99.90
17715;DHT22;8977;50.902;4.314;2023-04-21T03:47:52;12.50;99.90
17715;DHT22;8977;50.902;4.314;2023-04-21T03:50:20;12.50;99.90
17715;DHT22;8977;50.902;4.314;2023-04-21T03:52:47;12.50;99.90
17715;DHT22;8977;50.902;4.314;2023-04-21T03:55:14;12.50;99.90
17715;DHT22;8977;50.902;4.314;2023-04-21T03:57:42;12.50;99.90
17715;DHT22;8977;50.902;4.314;2023-04-21T04:00:10;12.50;99.90
17715;DHT22;8977;50.902;4.314;2023-04-21T04:02:37;12.50;99.90
17715;DHT22;8977;50.902;4.314;2023-04-21T04:05:05;12.50;99.90
17715;DHT22;8977;50.902;4.314;2023-04-21T04:07:32;12.60;99.90
17715;DHT22;8977;50.902;4.314;2023-04-21T04:10:00;12.60;99.90
17715;DHT22;8977;50.902;4.314;2023-04-21T04:12:27;12.60;99.90
17715;DHT22;8977;50.902;4.314;2023-04-21T04:14:56;12.60;99.90
17715;DHT22;8977;50.902;4.314;2023-04-21T04:17:23;12.60;99.90
17715;DHT22;8977;50.902;4.314;2023-04-21T04:19:50;12.50;99.90
17715;DHT22;8977;50.902;4.314;2023-04-21T04:22:17;12.60;99.90
17715;DHT22;8977;50.902;4.314;2023-04-21T04:24:44;12.50;99.90
17715;DHT22;8977;50.902;4.314;2023-04-21T04:27:12;12.50;99.90
17715;DHT22;8977;50.902;4.314;2023-04-21T04:29:39;12.60;99.90
17715;DHT22;8977;50.902;4.314;2023-04-21T04:32:08;12.60;99.90
17715;DHT22;8977;50.902;4.314;2023-04-21T04:34:35;12.50;99.90
17715;DHT22;8977;50.902;4.314;2023-04-21T04:37:03;12.50;99.90
17715;DHT22;8977;50.902;4.314;2023-04-21T04:39:31;12.50;99.90
17715;DHT22;8977;50.902;4.314;2023-04-21T04:41:58;12.50;99.90
17715;DHT22;8977;50.902;4.314;2023-04-21T04:44:26;12.50;99.90
17715;DHT22;8977;50.902;4.314;2023-04-21T04:46:53;12.50;99.90
17715;DHT22;8977;50.902;4.314;2023-04-21T04:49:21;12.50;99.90
17715;DHT22;8977;50.902;4.314;2023-04-21T04:51:48;12.50;99.90
17715;DHT22;8977;50.902;4.314;2023-04-21T04:54:15;12.50;99.90
17715;DHT22;8977;50.902;4.314;2023-04-21T04:56:41;12.60;99.90
17715;DHT22;8977;50.902;4.314;2023-04-21T04:59:08;12.60;99.90
17715;DHT22;8977;50.902;4.314;2023-04-21T05:01:36;12.60;99.90
17715;DHT22;8977;50.902;4.314;2023-04-21T05:04:04;12.50;99.90
17715;DHT22;8977;50.902;4.314;2023-04-21T05:06:33;12.50;99.90
17715;DHT22;8977;50.902;4.314;2023-04-21T05:08:59;12.50;99.90
17715;DHT22;8977;50.902;4.314;2023-04-21T05:11:26;12.50;99.90
17715;DHT22;8977;50.902;4.314;2023-04-21T05:13:53;12.50;99.90
17715;DHT22;8977;50.902;4.314;2023-04-21T05:16:20;12.60;99.90
17715;DHT22;8977;50.902;4.314;2023-04-21T05:18:47;12.60;99.90
17715;DHT22;8977;50.902;4.314;2023-04-21T05:21:22;12.60;99.90
17715;DHT22;8977;50.902;4.314;2023-04-21T05:23:50;12.60;99.90
17715;DHT22;8977;50.902;4.314;2023-04-21T05:26:17;12.60;99.90
17715;DHT22;8977;50.902;4.314;2023-04-21T05:28:45;12.50;99.90
17715;DHT22;8977;50.902;4.314;2023-04-21T05:31:12;12.60;99.90
17715;DHT22;8977;50.902;4.314;2023-04-21T05:33:39;12.60;99.90
17715;DHT22;8977;50.902;4.314;2023-04-21T05:36:06;12.60;99.90
17715;DHT22;8977;50.902;4.314;2023-04-21T05:38:34;12.60;99.90
17715;DHT22;8977;50.902;4.314;2023-04-21T05:41:03;12.60;99.90
17715;DHT22;8977;50.902;4.314;2023-04-21T05:43:30;12.60;99.90
17715;DHT22;8977;50.902;4.314;2023-04-21T05:45:58;12.60;99.90
17715;DHT22;8977;50.902;4.314;2023-04-21T05:48:26;12.60;99.90
17715;DHT22;8977;50.902;4.314;2023-04-21T05:50:53;12.70;99.90
17715;DHT22;8977;50.902;4.314;2023-04-21T05:53:20;12.60;99.90
17715;DHT22;8977;50.902;4.314;2023-04-21T05:55:48;12.70;99.90
17715;DHT22;8977;50.902;4.314;2023-04-21T05:58:16;12.70;99.90
17715;DHT22;8977;50.902;4.314;2023-04-21T06:00:43;12.60;99.90
17715;DHT22;8977;50.902;4.314;2023-04-21T06:03:12;12.60;99.90
17715;DHT22;8977;50.902;4.314;2023-04-21T06:05:39;12.60;99.90
17715;DHT22;8977;50.902;4.314;2023-04-21T06:08:05;12.60;99.90
17715;DHT22;8977;50.902;4.314;2023-04-21T06:10:33;12.60;99.90
17715;DHT22;8977;50.902;4.314;2023-04-21T06:13:00;12.60;99.90
17715;DHT22;8977;50.902;4.314;2023-04-21T06:15:28;12.70;99.90
17715;DHT22;8977;50.902;4.314;2023-04-21T06:17:55;12.60;99.90
17715;DHT22;8977;50.902;4.314;2023-04-21T06:20:22;12.60;99.90
17715;DHT22;8977;50.902;4.314;2023-04-21T06:22:49;12.60;99.90
17715;DHT22;8977;50.902;4.314;2023-04-21T06:25:16;12.60;99.90
17715;DHT22;8977;50.902;4.314;2023-04-21T06:27:43;12.60;99.90
17715;DHT22;8977;50.902;4.314;2023-04-21T06:30:11;12.60;99.90
17715;DHT22;8977;50.902;4.314;2023-04-21T06:32:39;12.60;99.90
17715;DHT22;8977;50.902;4.314;2023-04-21T06:35:07;12.60;99.90
17715;DHT22;8977;50.902;4.314;2023-04-21T06:37:34;12.70;99.90
17715;DHT22;8977;50.902;4.314;2023-04-21T06:40:01;12.70;99.90
17715;DHT22;8977;50.902;4.314;2023-04-21T06:42:28;12.70;99.90
17715;DHT22;8977;50.902;4.314;2023-04-21T06:44:55;12.70;99.90
17715;DHT22;8977;50.902;4.314;2023-04-21T06:47:22;12.70;99.90
17715;DHT22;8977;50.902;4.314;2023-04-21T06:49:50;12.70;99.90
17715;DHT22;8977;50.902;4.314;2023-04-21T06:52:17;12.70;99.90
17715;DHT22;8977;50.902;4.314;2023-04-21T06:54:44;12.80;99.90
17715;DHT22;8977;50.902;4.314;2023-04-21T06:57:11;12.80;99.90
17715;DHT22;8977;50.902;4.314;2023-04-21T06:59:39;12.80;99.90
17715;DHT22;8977;50.902;4.314;2023-04-21T07:02:06;12.80;99.90
17715;DHT22;8977;50.902;4.314;2023-04-21T07:04:33;12.90;99.90
17715;DHT22;8977;50.902;4.314;2023-04-21T07:07:01;12.90;99.90
17715;DHT22;8977;50.902;4.314;2023-04-21T07:09:28;13.00;99.90
17715;DHT22;8977;50.902;4.314;2023-04-21T07:11:58;13.00;99.90
17715;DHT22;8977;50.902;4.314;2023-04-21T07:14:25;13.00;99.90
17715;DHT22;8977;50.902;4.314;2023-04-21T07:16:52;13.00;99.90
17715;DHT22;8977;50.902;4.314;2023-04-21T07:19:19;13.10;99.90
17715;DHT22;8977;50.902;4.314;2023-04-21T07:21:46;13.10;99.90
17715;DHT22;8977;50.902;4.314;2023-04-21T07:24:14;13.10;99.90
17715;DHT22;8977;50.902;4.314;2023-04-21T07:26:41;13.10;99.90
17715;DHT22;8977;50.902;4.314;2023-04-21T07:29:08;13.10;99.90
17715;DHT22;8977;50.902;4.314;2023-04-21T07:31:35;13.10;99.90
17715;DHT22;8977;50.902;4.314;2023-04-21T07:34:02;13.20;99.90
17715;DHT22;8977;50.902;4.314;2023-04-21T07:36:29;13.20;99.90
17715;DHT22;8977;50.902;4.314;2023-04-21T07:38:56;13.20;99.90
17715;DHT22;8977;50.902;4.314;2023-04-21T07:41:24;13.20;99.90
17715;DHT22;8977;50.902;4.314;2023-04-21T07:43:51;13.30;99.90
17715;DHT22;8977;50.902;4.314;2023-04-21T07:46:18;13.30;99.90
17715;DHT22;8977;50.902;4.314;2023-04-21T07:48:46;13.40;99.90
17715;DHT22;8977;50.902;4.314;2023-04-21T07:51:12;13.50;99.90
17715;DHT22;8977;50.902;4.314;2023-04-21T07:53:42;13.50;99.90
17715;DHT22;8977;50.902;4.314;2023-04-21T07:56:09;13.50;99.90
17715;DHT22;8977;50.902;4.314;2023-04-21T07:58:38;13.50;99.90
17715;DHT22;8977;50.902;4.314;2023-04-21T08:01:05;13.50;99.90
17715;DHT22;8977;50.902;4.314;2023-04-21T08:03:32;13.50;99.90
17715;DHT22;8977;50.902;4.314;2023-04-21T08:06:00;13.60;99.90
17715;DHT22;8977;50.902;4.314;2023-04-21T08:08:27;13.60;99.90
17715;DHT22;8977;50.902;4.314;2023-04-21T08:10:53;13.60;99.90
17715;DHT22;8977;50.902;4.314;2023-04-21T08:13:20;13.70;99.90
17715;DHT22;8977;50.902;4.314;2023-04-21T08:15:51;13.80;99.90
17715;DHT22;8977;50.902;4.314;2023-04-21T08:18:18;13.80;99.90
17715;DHT22;8977;50.902;4.314;2023-04-21T08:20:45;13.90;99.90
17715;DHT22;8977;50.902;4.314;2023-04-21T08:23:13;13.90;99.90
17715;DHT22;8977;50.902;4.314;2023-04-21T08:25:40;13.90;99.90
17715;DHT22;8977;50.902;4.314;2023-04-21T08:28:07;13.90;99.90
17715;DHT22;8977;50.902;4.314;2023-04-21T08:30:34;14.00;99.90
17715;DHT22;8977;50.902;4.314;2023-04-21T08:33:02;14.00;99.90
17715;DHT22;8977;50.902;4.314;2023-04-21T08:35:29;14.10;99.90
17715;DHT22;8977;50.902;4.314;2023-04-21T08:37:56;14.10;99.90
17715;DHT22;8977;50.902;4.314;2023-04-21T08:40:27;14.20;99.90
17715;DHT22;8977;50.902;4.314;2023-04-21T08:42:57;14.20;99.90
17715;DHT22;8977;50.902;4.314;2023-04-21T08:45:25;14.30;99.90
17715;DHT22;8977;50.902;4.314;2023-04-21T08:47:54;14.30;99.90
17715;DHT22;8977;50.902;4.314;2023-04-21T08:50:26;14.40;99.90
17715;DHT22;8977;50.902;4.314;2023-04-21T08:52:54;14.40;99.90
17715;DHT22;8977;50.902;4.314;2023-04-21T08:55:25;14.50;99.90
17715;DHT22;8977;50.902;4.314;2023-04-21T08:57:52;14.50;99.90
17715;DHT22;8977;50.902;4.314;2023-04-21T09:00:19;14.50;99.90
17715;DHT22;8977;50.902;4.314;2023-04-21T09:02:54;14.50;99.90
17715;DHT22;8977;50.902;4.314;2023-04-21T09:05:24;14.60;99.90
17715;DHT22;8977;50.902;4.314;2023-04-21T09:07:52;14.70;99.90
17715;DHT22;8977;50.902;4.314;2023-04-21T09:10:23;14.70;99.90
17715;DHT22;8977;50.902;4.314;2023-04-21T09:12:53;14.80;99.90
17715;DHT22;8977;50.902;4.314;2023-04-21T09:15:20;14.80;99.90
17715;DHT22;8977;50.902;4.314;2023-04-21T09:17:54;14.80;99.90
17715;DHT22;8977;50.902;4.314;2023-04-21T09:20:23;14.90;99.90
17715;DHT22;8977;50.902;4.314;2023-04-21T09:22:50;15.00;99.90
17715;DHT22;8977;50.902;4.314;2023-04-21T09:25:19;15.00;99.90
17715;DHT22;8977;50.902;4.314;2023-04-21T09:27:46;15.00;99.90
17715;DHT22;8977;50.902;4.314;2023-04-21T09:30:17;15.00;99.90
17715;DHT22;8977;50.902;4.314;2023-04-21T09:32:44;15.10;99.90
17715;DHT22;8977;50.902;4.314;2023-04-21T09:35:11;15.10;99.90
17715;DHT22;8977;50.902;4.314;2023-04-21T09:37:42;15.20;99.90
17715;DHT22;8977;50.902;4.314;2023-04-21T09:40:13;15.20;99.90
17715;DHT22;8977;50.902;4.314;2023-04-21T09:42:40;15.30;99.90
17715;DHT22;8977;50.902;4.314;2023-04-21T09:45:08;15.30;99.90
17715;DHT22;8977;50.902;4.314;2023-04-21T09:47:38;15.20;99.90
17715;DHT22;8977;50.902;4.314;2023-04-21T09:50:07;15.30;99.90
17715;DHT22;8977;50.902;4.314;2023-04-21T09:52:37;15.30;99.90
17715;DHT22;8977;50.902;4.314;2023-04-21T09:55:10;15.40;99.90
17715;DHT22;8977;50.902;4.314;2023-04-21T09:57:39;15.30;99.90
17715;DHT22;8977;50.902;4.314;2023-04-21T10:00:09;15.40;99.90
17715;DHT22;8977;50.902;4.314;2023-04-21T10:02:41;15.50;99.90
17715;DHT22;8977;50.902;4.314;2023-04-21T10:05:09;15.50;99.90
17715;DHT22;8977;50.902;4.314;2023-04-21T10:07:36;15.50;99.90
17715;DHT22;8977;50.902;4.314;2023-04-21T10:10:10;15.50;99.90
17715;DHT22;8977;50.902;4.314;2023-04-21T10:12:39;15.60;99.90
17715;DHT22;8977;50.902;4.314;2023-04-21T10:15:30;15.60;99.90
17715;DHT22;8977;50.902;4.314;2023-04-21T10:18:14;15.60;99.90
17715;DHT22;8977;50.902;4.314;2023-04-21T10:20:55;15.70;99.90
17715;DHT22;8977;50.902;4.314;2023-04-21T10:23:31;15.80;99.90
17715;DHT22;8977;50.902;4.314;2023-04-21T10:26:04;15.80;99.90
17715;DHT22;8977;50.902;4.314;2023-04-21T10:28:46;15.80;99.90
17715;DHT22;8977;50.902;4.314;2023-04-21T10:31:30;15.80;99.90
17715;DHT22;8977;50.902;4.314;2023-04-21T10:34:16;15.80;99.90
17715;DHT22;8977;50.902;4.314;2023-04-21T10:37:10;15.80;99.90
17715;DHT22;8977;50.902;4.314;2023-04-21T10:39:45;15.80;99.90
17715;DHT22;8977;50.902;4.314;2023-04-21T10:42:41;15.90;99.90
17715;DHT22;8977;50.902;4.314;2023-04-21T10:45:09;15.90;99.90
17715;DHT22;8977;50.902;4.314;2023-04-21T10:47:54;16.00;99.90
17715;DHT22;8977;50.902;4.314;2023-04-21T10:50:22;16.00;99.90
17715;DHT22;8977;50.902;4.314;2023-04-21T10:52:53;16.10;99.90
17715;DHT22;8977;50.902;4.314;2023-04-21T10:55:21;16.10;99.90
17715;DHT22;8977;50.902;4.314;2023-04-21T10:57:49;16.20;99.90
17715;DHT22;8977;50.902;4.314;2023-04-21T11:00:18;16.30;99.90
17715;DHT22;8977;50.902;4.314;2023-04-21T11:03:00;16.30;99.90
17715;DHT22;8977;50.902;4.314;2023-04-21T11:05:35;16.30;99.90
17715;DHT22;8977;50.902;4.314;2023-04-21T11:08:08;16.40;99.90
17715;DHT22;8977;50.902;4.314;2023-04-21T11:10:56;16.40;99.90
17715;DHT22;8977;50.902;4.314;2023-04-21T11:13:25;16.50;99.90
17715;DHT22;8977;50.902;4.314;2023-04-21T11:16:01;16.40;99.90
17715;DHT22;8977;50.902;4.314;2023-04-21T11:18:39;16.50;99.90
17715;DHT22;8977;50.902;4.314;2023-04-21T11:21:08;16.50;99.90
17715;DHT22;8977;50.902;4.314;2023-04-21T11:23:38;16.60;99.90
17715;DHT22;8977;50.902;4.314;2023-04-21T11:26:06;16.60;99.90
17715;DHT22;8977;50.902;4.314;2023-04-21T11:28:35;16.70;99.90
17715;DHT22;8977;50.902;4.314;2023-04-21T11:31:03;16.80;99.90
17715;DHT22;8977;50.902;4.314;2023-04-21T11:33:35;16.80;99.90
17715;DHT22;8977;50.902;4.314;2023-04-21T11:36:03;16.80;99.90
17715;DHT22;8977;50.902;4.314;2023-04-21T11:38:36;16.90;99.90
17715;DHT22;8977;50.902;4.314;2023-04-21T11:41:04;16.90;99.90
17715;DHT22;8977;50.902;4.314;2023-04-21T11:43:31;16.90;99.90
17715;DHT22;8977;50.902;4.314;2023-04-21T11:46:12;16.90;99.90
17715;DHT22;8977;50.902;4.314;2023-04-21T11:48:39;17.00;99.90
17715;DHT22;8977;50.902;4.314;2023-04-21T11:51:13;17.10;99.90
17715;DHT22;8977;50.902;4.314;2023-04-21T11:53:40;17.20;99.90
17715;DHT22;8977;50.902;4.314;2023-04-21T11:56:08;17.20;99.90
17715;DHT22;8977;50.902;4.314;2023-04-21T11:58:37;17.20;99.90
17715;DHT22;8977;50.902;4.314;2023-04-21T12:01:06;17.30;99.90
17715;DHT22;8977;50.902;4.314;2023-04-21T12:03:35;17.30;99.90
17715;DHT22;8977;50.902;4.314;2023-04-21T12:06:02;17.30;99.90
17715;DHT22;8977;50.902;4.314;2023-04-21T12:08:30;17.40;99.90
17715;DHT22;8977;50.902;4.314;2023-04-21T12:10:57;17.40;99.20
17715;DHT22;8977;50.902;4.314;2023-04-21T12:13:26;17.40;99.30
17715;DHT22;8977;50.902;4.314;2023-04-21T12:15:53;17.50;98.80
17715;DHT22;8977;50.902;4.314;2023-04-21T12:18:20;17.60;99.00
17715;DHT22;8977;50.902;4.314;2023-04-21T12:20:52;17.60;98.80
17715;DHT22;8977;50.902;4.314;2023-04-21T12:23:18;17.70;98.70
17715;DHT22;8977;50.902;4.314;2023-04-21T12:25:46;17.60;98.70
17715;DHT22;8977;50.902;4.314;2023-04-21T12:28:14;17.70;98.30
17715;DHT22;8977;50.902;4.314;2023-04-21T12:30:42;17.70;98.00
17715;DHT22;8977;50.902;4.314;2023-04-21T12:33:10;17.70;98.00
17715;DHT22;8977;50.902;4.314;2023-04-21T12:35:37;17.80;98.20
17715;DHT22;8977;50.902;4.314;2023-04-21T12:38:05;17.90;97.60
17715;DHT22;8977;50.902;4.314;2023-04-21T12:40:32;18.00;97.40
17715;DHT22;8977;50.902;4.314;2023-04-21T12:42:59;18.00;97.60
17715;DHT22;8977;50.902;4.314;2023-04-21T12:45:26;18.10;97.90
17715;DHT22;8977;50.902;4.314;2023-04-21T12:47:53;18.10;98.00
17715;DHT22;8977;50.902;4.314;2023-04-21T12:50:20;18.30;97.40
17715;DHT22;8977;50.902;4.314;2023-04-21T12:52:48;18.30;97.10
17715;DHT22;8977;50.902;4.314;2023-04-21T12:55:17;18.40;97.40
17715;DHT22;8977;50.902;4.314;2023-04-21T12:57:44;18.40;97.30
17715;DHT22;8977;50.902;4.314;2023-04-21T13:00:12;18.50;97.20
17715;DHT22;8977;50.902;4.314;2023-04-21T13:02:40;18.50;96.70
17715;DHT22;8977;50.902;4.314;2023-04-21T13:05:07;18.40;96.70
17715;DHT22;8977;50.902;4.314;2023-04-21T13:07:36;18.30;97.20
17715;DHT22;8977;50.902;4.314;2023-04-21T13:10:05;18.30;97.40
17715;DHT22;8977;50.902;4.314;2023-04-21T13:12:34;18.30;97.30
17715;DHT22;8977;50.902;4.314;2023-04-21T13:15:01;18.40;97.00
17715;DHT22;8977;50.902;4.314;2023-04-21T13:17:28;18.50;96.90
17715;DHT22;8977;50.902;4.314;2023-04-21T13:19:55;18.60;97.20
17715;DHT22;8977;50.902;4.314;2023-04-21T13:22:22;18.60;96.60
17715;DHT22;8977;50.902;4.314;2023-04-21T13:24:49;18.60;96.60
17715;DHT22;8977;50.902;4.314;2023-04-21T13:27:16;18.60;96.20
17715;DHT22;8977;50.902;4.314;2023-04-21T13:29:44;18.50;95.50
17715;DHT22;8977;50.902;4.314;2023-04-21T13:32:12;18.50;95.50
17715;DHT22;8977;50.902;4.314;2023-04-21T13:34:39;18.50;96.20
17715;DHT22;8977;50.902;4.314;2023-04-21T13:37:06;18.50;96.20
17715;DHT22;8977;50.902;4.314;2023-04-21T13:39:37;18.50;96.60
17715;DHT22;8977;50.902;4.314;2023-04-21T13:42:04;18.60;97.40
17715;DHT22;8977;50.902;4.314;2023-04-21T13:44:32;18.70;98.00
17715;DHT22;8977;50.902;4.314;2023-04-21T13:47:00;18.80;97.60
17715;DHT22;8977;50.902;4.314;2023-04-21T13:49:27;18.80;97.60
17715;DHT22;8977;50.902;4.314;2023-04-21T13:51:54;18.80;97.30
17715;DHT22;8977;50.902;4.314;2023-04-21T13:54:21;18.80;97.40
17715;DHT22;8977;50.902;4.314;2023-04-21T13:56:47;18.80;96.80
17715;DHT22;8977;50.902;4.314;2023-04-21T13:59:15;18.80;96.40
17715;DHT22;8977;50.902;4.314;2023-04-21T14:01:42;18.70;96.10
17715;DHT22;8977;50.902;4.314;2023-04-21T14:04:10;18.50;96.30
17715;DHT22;8977;50.902;4.314;2023-04-21T14:06:37;18.50;96.80
17715;DHT22;8977;50.902;4.314;2023-04-21T14:09:04;18.50;96.80
17715;DHT22;8977;50.902;4.314;2023-04-21T14:11:31;18.50;97.00
17715;DHT22;8977;50.902;4.314;2023-04-21T14:13:58;18.50;97.00
17715;DHT22;8977;50.902;4.314;2023-04-21T14:16:25;18.50;96.70
17715;DHT22;8977;50.902;4.314;2023-04-21T14:18:52;18.50;96.20
17715;DHT22;8977;50.902;4.314;2023-04-21T14:21:20;18.50;95.30
17715;DHT22;8977;50.902;4.314;2023-04-21T14:23:47;18.50;96.40
17715;DHT22;8977;50.902;4.314;2023-04-21T14:26:14;18.40;96.20
17715;DHT22;8977;50.902;4.314;2023-04-21T14:28:41;18.40;96.30
17715;DHT22;8977;50.902;4.314;2023-04-21T14:31:09;18.30;96.40
17715;DHT22;8977;50.902;4.314;2023-04-21T14:33:36;18.30;96.70
17715;DHT22;8977;50.902;4.314;2023-04-21T14:36:03;18.30;96.80
17715;DHT22;8977;50.902;4.314;2023-04-21T14:38:32;18.20;97.10
17715;DHT22;8977;50.902;4.314;2023-04-21T14:40:59;18.10;96.90
17715;DHT22;8977;50.902;4.314;2023-04-21T14:43:26;18.10;97.00
17715;DHT22;8977;50.902;4.314;2023-04-21T14:45:53;18.20;96.80
17715;DHT22;8977;50.902;4.314;2023-04-21T14:48:20;18.20;96.70
17715;DHT22;8977;50.902;4.314;2023-04-21T14:50:47;18.10;96.70
17715;DHT22;8977;50.902;4.314;2023-04-21T14:53:14;18.10;96.80
17715;DHT22;8977;50.902;4.314;2023-04-21T14:55:42;18.00;97.10
17715;DHT22;8977;50.902;4.314;2023-04-21T14:58:09;18.10;97.10
17715;DHT22;8977;50.902;4.314;2023-04-21T15:00:37;18.00;96.90
17715;DHT22;8977;50.902;4.314;2023-04-21T15:03:04;18.00;96.90
17715;DHT22;8977;50.902;4.314;2023-04-21T15:05:31;18.00;97.00
17715;DHT22;8977;50.902;4.314;2023-04-21T15:07:59;18.00;96.50
17715;DHT22;8977;50.902;4.314;2023-04-21T15:10:26;18.00;96.30
17715;DHT22;8977;50.902;4.314;2023-04-21T15:12:56;18.10;97.00
17715;DHT22;8977;50.902;4.314;2023-04-21T15:15:23;18.20;96.80
17715;DHT22;8977;50.902;4.314;2023-04-21T15:17:50;18.20;97.20
17715;DHT22;8977;50.902;4.314;2023-04-21T15:20:17;18.30;97.30
17715;DHT22;8977;50.902;4.314;2023-04-21T15:22:43;18.40;97.40
17715;DHT22;8977;50.902;4.314;2023-04-21T15:25:10;18.40;97.10
17715;DHT22;8977;50.902;4.314;2023-04-21T15:27:37;18.30;96.90
17715;DHT22;8977;50.902;4.314;2023-04-21T15:30:07;18.30;97.40
17715;DHT22;8977;50.902;4.314;2023-04-21T15:32:34;18.30;97.90
17715;DHT22;8977;50.902;4.314;2023-04-21T15:35:01;18.20;98.00
17715;DHT22;8977;50.902;4.314;2023-04-21T15:37:28;18.20;98.20
17715;DHT22;8977;50.902;4.314;2023-04-21T15:39:55;18.10;98.70
17715;DHT22;8977;50.902;4.314;2023-04-21T15:42:22;18.10;99.00
17715;DHT22;8977;50.902;4.314;2023-04-21T15:44:49;18.00;99.30
17715;DHT22;8977;50.902;4.314;2023-04-21T15:47:19;18.00;99.20
17715;DHT22;8977;50.902;4.314;2023-04-21T15:49:47;17.90;99.20
17715;DHT22;8977;50.902;4.314;2023-04-21T15:52:14;18.00;99.20